createdAt,value
2019-06-26T00:01:08.828Z,9.90
2019-06-26T00:03:35.126Z,11.30
2019-06-26T00:06:01.410Z,10.38
2019-06-26T00:08:27.660Z,10.43
2019-06-26T00:10:53.845Z,10.80
2019-06-26T00:13:26.143Z,10.35
2019-06-26T00:15:48.026Z,11.12
2019-06-26T00:18:14.314Z,10.70
2019-06-26T00:20:40.597Z,10.78
2019-06-26T00:23:06.795Z,10.40
2019-06-26T00:25:33.105Z,11.83
2019-06-26T00:27:59.320Z,11.55
2019-06-26T00:30:25.535Z,11.10
2019-06-26T00:32:51.709Z,11.55
2019-06-26T00:35:17.992Z,10.72
2019-06-26T00:37:44.182Z,11.20
2019-06-26T00:40:11.749Z,11.55
2019-06-26T00:42:37.933Z,11.63
2019-06-26T00:45:05.251Z,10.82
2019-06-26T00:47:31.610Z,10.50
2019-06-26T00:49:57.698Z,10.98
2019-06-26T00:52:23.741Z,11.68
2019-06-26T00:54:49.964Z,11.60
2019-06-26T00:57:16.143Z,10.95
2019-06-26T00:59:42.337Z,12.55
2019-06-26T01:02:08.606Z,11.88
2019-06-26T01:04:39.697Z,11.15
2019-06-26T01:07:05.778Z,11.57
2019-06-26T01:09:31.961Z,11.97
2019-06-26T01:11:58.474Z,12.43
2019-06-26T01:14:24.659Z,12.35
2019-06-26T01:16:50.714Z,11.85
2019-06-26T01:19:17.005Z,11.88
2019-06-26T01:21:43.089Z,12.00
2019-06-26T01:24:09.273Z,12.15
2019-06-26T01:26:35.551Z,12.75
2019-06-26T01:29:01.850Z,13.00
2019-06-26T01:31:29.101Z,12.45
2019-06-26T01:33:55.300Z,12.45
2019-06-26T01:36:21.481Z,12.95
2019-06-26T01:38:47.685Z,12.80
2019-06-26T01:41:13.956Z,13.10
2019-06-26T01:43:40.241Z,12.43
2019-06-26T01:46:06.426Z,12.05
2019-06-26T01:48:32.747Z,11.68
2019-06-26T01:50:58.885Z,13.25
2019-06-26T01:53:25.038Z,14.73
2019-06-26T01:55:51.250Z,14.20
2019-06-26T01:58:17.431Z,12.68
2019-06-26T02:00:43.535Z,13.25
2019-06-26T02:03:09.778Z,13.13
2019-06-26T02:05:35.960Z,12.15
2019-06-26T02:08:02.245Z,12.13
2019-06-26T02:10:28.348Z,13.00
2019-06-26T02:12:54.640Z,13.40
2019-06-26T02:15:21.145Z,12.82
2019-06-26T02:17:47.320Z,13.70
2019-06-26T02:20:13.712Z,16.10
2019-06-26T02:22:39.877Z,14.45
2019-06-26T02:25:06.769Z,14.68
2019-06-26T02:27:33.376Z,15.88
2019-06-26T02:29:59.458Z,15.10
2019-06-26T02:32:25.621Z,16.30
2019-06-26T02:34:52.404Z,15.68
2019-06-26T02:37:18.572Z,15.83
2019-06-26T02:39:44.856Z,14.90
2019-06-26T02:42:11.141Z,14.38
2019-06-26T02:44:52.376Z,15.03
2019-06-26T02:47:18.294Z,13.45
2019-06-26T02:49:33.734Z,15.23
2019-06-26T02:51:59.838Z,16.90
2019-06-26T02:54:26.155Z,17.35
2019-06-26T02:56:53.784Z,17.77
2019-06-26T02:59:19.942Z,17.05
2019-06-26T03:01:46.367Z,15.80
2019-06-26T03:04:12.524Z,17.37
2019-06-26T03:06:38.714Z,17.40
2019-06-26T03:09:05.963Z,15.72
2019-06-26T03:11:32.274Z,16.62
2019-06-26T03:13:58.847Z,19.37
2019-06-26T03:16:25.039Z,19.48
2019-06-26T03:18:51.213Z,15.90
2019-06-26T03:21:17.625Z,16.12
2019-06-26T03:23:44.785Z,17.00
2019-06-26T03:26:11.119Z,18.75
2019-06-26T03:28:37.167Z,18.00
2019-06-26T03:31:03.570Z,18.45
2019-06-26T03:33:29.736Z,19.15
2019-06-26T03:35:56.011Z,17.98
2019-06-26T03:38:22.192Z,18.62
2019-06-26T03:40:48.493Z,16.93
2019-06-26T03:43:14.651Z,18.95
2019-06-26T03:45:41.033Z,18.62
2019-06-26T03:48:07.217Z,18.40
2019-06-26T03:50:33.626Z,18.80
2019-06-26T03:52:59.899Z,19.73
2019-06-26T03:55:26.045Z,19.23
2019-06-26T03:57:52.265Z,19.50
2019-06-26T04:00:37.066Z,22.73
2019-06-26T04:03:03.444Z,19.87
2019-06-26T04:05:29.821Z,20.10
2019-06-26T04:07:56.216Z,20.43
2019-06-26T04:10:22.275Z,19.45
2019-06-26T04:12:48.583Z,20.62
2019-06-26T04:15:15.073Z,23.02
2019-06-26T04:17:41.859Z,23.87
2019-06-26T04:20:09.336Z,24.25
2019-06-26T04:22:35.727Z,21.75
2019-06-26T04:25:06.444Z,21.55
2019-06-26T04:27:32.677Z,21.87
2019-06-26T04:29:58.740Z,25.75
2019-06-26T04:32:25.007Z,26.15
2019-06-26T04:34:54.370Z,26.85
2019-06-26T04:37:19.387Z,27.22
2019-06-26T04:39:45.541Z,26.23
2019-06-26T04:42:11.780Z,26.85
2019-06-26T04:44:37.847Z,25.90
2019-06-26T04:47:04.863Z,27.70
2019-06-26T04:49:31.037Z,29.30
2019-06-26T04:51:57.267Z,27.93
2019-06-26T04:54:23.347Z,28.02
2019-06-26T04:56:49.599Z,29.63
2019-06-26T04:59:15.864Z,27.73
2019-06-26T05:01:42.123Z,28.23
2019-06-26T05:04:08.293Z,28.23
2019-06-26T05:06:34.649Z,28.83
2019-06-26T05:09:01.008Z,28.12
2019-06-26T05:11:29.111Z,28.67
2019-06-26T05:13:55.311Z,27.60
2019-06-26T05:16:21.580Z,28.87
2019-06-26T05:18:48.754Z,28.80
2019-06-26T05:21:15.327Z,29.50
2019-06-26T05:23:41.507Z,29.75
2019-06-26T05:26:07.670Z,29.75
2019-06-26T05:28:33.982Z,29.55
2019-06-26T05:31:00.221Z,27.35
2019-06-26T05:33:26.399Z,30.23
2019-06-26T05:35:52.589Z,28.92
2019-06-26T05:38:18.806Z,28.87
2019-06-26T05:40:44.989Z,29.30
2019-06-26T05:43:11.332Z,27.82
2019-06-26T05:45:37.704Z,30.35
2019-06-26T05:48:03.922Z,31.37
2019-06-26T05:50:30.078Z,30.08
2019-06-26T05:52:56.479Z,29.27
2019-06-26T05:55:22.754Z,29.60
2019-06-26T05:57:49.077Z,29.00
2019-06-26T06:00:16.035Z,29.72
2019-06-26T06:02:42.381Z,30.00
2019-06-26T06:05:09.071Z,29.75
2019-06-26T06:07:35.478Z,29.82
2019-06-26T06:10:02.540Z,30.88
2019-06-26T06:12:29.108Z,30.70
2019-06-26T06:14:55.225Z,30.25
2019-06-26T06:17:21.494Z,30.55
2019-06-26T06:19:48.006Z,29.82
2019-06-26T06:22:14.351Z,29.57
2019-06-26T06:24:40.536Z,28.55
2019-06-26T06:27:06.726Z,29.40
2019-06-26T06:29:33.004Z,28.25
2019-06-26T06:31:59.495Z,27.37
2019-06-26T06:34:25.764Z,26.80
2019-06-26T06:36:51.847Z,27.55
2019-06-26T06:39:17.927Z,27.80
2019-06-26T06:41:44.236Z,26.57
2019-06-26T06:44:10.387Z,29.90
2019-06-26T06:46:36.609Z,31.45
2019-06-26T06:49:03.940Z,32.15
2019-06-26T06:51:30.185Z,33.45
2019-06-26T06:53:56.384Z,31.05
2019-06-26T06:56:22.491Z,30.82
2019-06-26T06:58:49.885Z,31.40
2019-06-26T07:01:16.295Z,33.05
2019-06-26T07:03:42.591Z,27.95
2019-06-26T07:06:08.807Z,29.30
2019-06-26T07:08:35.109Z,29.40
2019-06-26T07:11:01.176Z,29.12
2019-06-26T07:13:27.455Z,26.73
2019-06-26T07:15:53.746Z,27.67
2019-06-26T07:18:19.964Z,29.75
2019-06-26T07:20:46.232Z,27.42
2019-06-26T07:23:12.421Z,26.85
2019-06-26T07:25:38.696Z,23.52
2019-06-26T07:28:05.077Z,22.13
2019-06-26T07:30:31.330Z,23.25
2019-06-26T07:32:57.496Z,21.20
2019-06-26T07:35:23.736Z,20.90
2019-06-26T07:37:49.799Z,23.90
2019-06-26T07:40:16.805Z,21.20
2019-06-26T07:42:43.094Z,21.20
2019-06-26T07:45:09.597Z,19.60
2019-06-26T07:47:43.134Z,20.23
2019-06-26T07:50:05.665Z,18.62
2019-06-26T07:52:31.813Z,18.07
2019-06-26T07:54:58.333Z,17.90
2019-06-26T07:57:24.609Z,19.40
2019-06-26T07:59:51.028Z,16.10
2019-06-26T08:02:17.291Z,19.05
2019-06-26T08:04:43.594Z,18.55
2019-06-26T08:07:09.694Z,18.42
2019-06-26T08:09:35.993Z,18.95
2019-06-26T08:12:02.167Z,21.57
2019-06-26T08:14:28.768Z,23.65
2019-06-26T08:16:54.907Z,19.75
2019-06-26T08:19:21.084Z,19.10
2019-06-26T08:21:47.269Z,22.02
2019-06-26T08:24:13.695Z,19.85
2019-06-26T08:26:40.085Z,18.42
2019-06-26T08:29:06.366Z,19.80
2019-06-26T08:31:32.462Z,17.70
2019-06-26T08:33:59.063Z,15.53
2019-06-26T08:36:25.291Z,18.57
2019-06-26T08:38:51.455Z,16.70
2019-06-26T08:41:17.651Z,15.50
2019-06-26T08:43:44.064Z,16.65
2019-06-26T08:46:10.291Z,17.52
2019-06-26T08:48:40.010Z,16.40
2019-06-26T08:51:04.652Z,16.37
2019-06-26T08:53:30.734Z,13.88
2019-06-26T08:55:57.049Z,13.88
2019-06-26T08:58:23.198Z,14.45
2019-06-26T09:00:49.517Z,12.65
2019-06-26T09:03:16.787Z,10.95
2019-06-26T09:05:47.929Z,11.05
2019-06-26T09:08:12.207Z,10.88
2019-06-26T09:10:38.606Z,11.78
2019-06-26T09:13:04.885Z,11.57
2019-06-26T09:15:31.328Z,11.70
2019-06-26T09:17:57.516Z,11.48
2019-06-26T09:20:37.929Z,11.75
2019-06-26T09:23:04.328Z,14.95
2019-06-26T09:25:30.440Z,14.03
2019-06-26T09:27:56.628Z,10.55
2019-06-26T09:30:23.375Z,10.20
2019-06-26T09:32:49.569Z,9.40
2019-06-26T09:35:15.981Z,9.95
2019-06-26T09:37:42.393Z,10.20
2019-06-26T09:40:08.991Z,11.78
2019-06-26T09:42:35.195Z,8.48
2019-06-26T09:45:02.094Z,9.00
2019-06-26T09:47:30.966Z,9.08
2019-06-26T09:49:56.363Z,9.23
2019-06-26T09:52:22.729Z,8.78
2019-06-26T09:54:48.995Z,7.90
2019-06-26T09:57:15.291Z,8.58
2019-06-26T09:59:41.360Z,7.35
2019-06-26T10:02:07.586Z,7.22
2019-06-26T10:04:33.828Z,6.53
2019-06-26T10:07:00.049Z,7.90
2019-06-26T10:09:26.300Z,6.58
2019-06-26T10:11:52.553Z,6.62
2019-06-26T10:14:18.607Z,7.10
2019-06-26T10:16:44.709Z,5.97
2019-06-26T10:19:11.241Z,6.45
2019-06-26T10:21:37.360Z,5.72
2019-06-26T10:24:03.708Z,5.75
2019-06-26T10:26:32.419Z,5.87
2019-06-26T10:28:58.104Z,7.22
2019-06-26T10:31:24.392Z,7.45
2019-06-26T10:33:50.658Z,6.80
2019-06-26T10:36:16.852Z,6.30
2019-06-26T10:38:43.150Z,6.78
2019-06-26T10:41:09.347Z,6.50
2019-06-26T10:43:35.545Z,6.42
2019-06-26T10:46:02.812Z,6.35
2019-06-26T10:48:29.411Z,6.50
2019-06-26T10:50:58.913Z,7.20
2019-06-26T10:53:24.014Z,6.70
2019-06-26T10:55:50.300Z,6.60
2019-06-26T10:58:16.579Z,6.85
2019-06-26T11:00:42.758Z,6.80
2019-06-26T11:03:08.962Z,6.92
2019-06-26T11:05:35.138Z,7.90
2019-06-26T11:08:01.531Z,8.28
2019-06-26T11:10:27.912Z,8.30
2019-06-26T11:12:54.209Z,8.08
2019-06-26T11:15:22.086Z,7.45
2019-06-26T11:17:48.280Z,7.90
2019-06-26T11:20:14.968Z,8.70
2019-06-26T11:22:41.077Z,8.28
2019-06-26T11:25:08.098Z,6.97
2019-06-26T11:27:34.496Z,8.00
2019-06-26T11:30:00.598Z,8.55
2019-06-26T11:32:26.705Z,9.00
2019-06-26T11:34:52.989Z,7.85
2019-06-26T11:37:22.807Z,9.80
2019-06-26T11:39:47.387Z,9.70
2019-06-26T11:42:13.625Z,8.80
2019-06-26T11:44:40.015Z,9.75
2019-06-26T11:47:06.231Z,10.03
2019-06-26T11:49:32.605Z,8.70
2019-06-26T11:51:58.945Z,9.58
2019-06-26T11:54:25.576Z,9.70
2019-06-26T11:56:51.889Z,9.30
2019-06-26T11:59:18.255Z,9.35
2019-06-26T12:01:44.333Z,9.18
2019-06-26T12:04:10.430Z,9.20
2019-06-26T12:06:36.691Z,9.55
2019-06-26T12:09:06.009Z,9.60
2019-06-26T12:11:32.289Z,9.43
2019-06-26T12:13:59.682Z,9.88
2019-06-26T12:16:25.744Z,9.55
2019-06-26T12:18:51.949Z,9.83
2019-06-26T12:21:18.246Z,13.83
2019-06-26T12:23:44.337Z,10.23
2019-06-26T12:26:10.799Z,18.00
2019-06-26T12:28:37.239Z,14.95
2019-06-26T12:31:03.582Z,12.07
2019-06-26T12:33:29.772Z,12.35
2019-06-26T12:35:55.975Z,11.75
2019-06-26T12:38:22.192Z,12.45
2019-06-26T12:40:48.486Z,11.15
2019-06-26T12:43:15.128Z,11.60
2019-06-26T12:45:41.446Z,12.37
2019-06-26T12:48:07.735Z,13.95
2019-06-26T12:50:35.971Z,13.28
2019-06-26T12:53:01.943Z,12.43
2019-06-26T12:55:32.603Z,11.35
2019-06-26T12:58:11.917Z,11.73
2019-06-26T13:00:24.588Z,12.75
2019-06-26T13:02:50.881Z,11.22
2019-06-26T13:05:17.377Z,13.28
2019-06-26T13:07:43.687Z,13.18
2019-06-26T13:10:10.926Z,15.55
2019-06-26T13:12:37.141Z,14.78
2019-06-26T13:15:07.127Z,14.90
2019-06-26T13:17:33.501Z,17.20
2019-06-26T13:20:00.827Z,14.45
2019-06-26T13:22:26.990Z,13.13
2019-06-26T13:24:53.344Z,13.40
2019-06-26T13:27:19.489Z,13.20
2019-06-26T13:29:45.937Z,12.30
2019-06-26T13:32:12.099Z,11.75
2019-06-26T13:34:38.489Z,11.35
2019-06-26T13:37:07.310Z,12.82
2019-06-26T13:39:32.944Z,9.63
2019-06-26T13:41:59.225Z,10.15
2019-06-26T13:44:25.541Z,9.58
2019-06-26T13:46:51.640Z,9.30
2019-06-26T13:49:17.719Z,9.80
2019-06-26T13:51:44.057Z,10.85
2019-06-26T13:54:10.556Z,9.60
2019-06-26T13:56:37.045Z,10.00
2019-06-26T13:59:07.143Z,11.73
2019-06-26T14:01:31.749Z,11.48
2019-06-26T14:03:57.829Z,11.93
2019-06-26T14:06:24.040Z,12.43
2019-06-26T14:08:50.392Z,11.40
2019-06-26T14:11:16.601Z,12.98
2019-06-26T14:13:42.678Z,11.95
2019-06-26T14:16:09.084Z,11.60
2019-06-26T14:18:35.308Z,12.40
2019-06-26T14:21:01.710Z,11.97
2019-06-26T14:23:27.975Z,14.60
2019-06-26T14:25:54.154Z,11.68
2019-06-26T14:28:20.427Z,11.80
2019-06-26T14:30:46.660Z,11.08
2019-06-26T14:33:12.757Z,10.80
2019-06-26T14:35:38.875Z,10.88
2019-06-26T14:38:05.268Z,10.65
2019-06-26T14:40:31.394Z,9.25
2019-06-26T14:42:57.518Z,9.75
2019-06-26T14:45:23.638Z,8.20
2019-06-26T14:47:49.818Z,8.08
2019-06-26T14:50:17.588Z,8.35
2019-06-26T14:52:45.958Z,7.90
2019-06-26T14:55:11.942Z,7.87
2019-06-26T14:57:38.210Z,7.53
2019-06-26T15:00:05.510Z,7.42
2019-06-26T15:02:32.092Z,7.40
2019-06-26T15:04:58.406Z,7.30
2019-06-26T15:07:24.634Z,7.53
2019-06-26T15:09:50.827Z,7.45
2019-06-26T15:12:17.008Z,7.72
2019-06-26T15:14:43.706Z,7.58
2019-06-26T15:17:10.052Z,7.03
2019-06-26T15:19:36.414Z,7.12
2019-06-26T15:22:02.959Z,6.83
2019-06-26T15:24:29.241Z,7.03
2019-06-26T15:26:55.594Z,7.25
2019-06-26T15:29:21.761Z,7.15
2019-06-26T15:31:48.070Z,7.15
2019-06-26T15:34:14.920Z,6.75
2019-06-26T15:36:41.203Z,7.45
2019-06-26T15:39:08.209Z,6.67
2019-06-26T15:41:34.522Z,7.30
2019-06-26T15:44:00.723Z,6.42
2019-06-26T15:46:26.956Z,6.70
2019-06-26T15:48:53.179Z,6.37
2019-06-26T15:51:19.586Z,6.37
2019-06-26T15:53:45.756Z,6.42
2019-06-26T15:56:11.966Z,6.72
2019-06-26T15:58:38.257Z,7.12
2019-06-26T16:01:04.664Z,8.25
2019-06-26T16:03:32.734Z,8.20
2019-06-26T16:05:59.052Z,8.78
2019-06-26T16:08:25.251Z,9.08
2019-06-26T16:10:52.078Z,9.88
2019-06-26T16:13:18.267Z,9.53
2019-06-26T16:15:45.360Z,9.73
2019-06-26T16:18:16.199Z,9.83
2019-06-26T16:20:42.393Z,9.93
2019-06-26T16:23:09.832Z,9.70
2019-06-26T16:25:35.994Z,10.08
2019-06-26T16:28:05.710Z,9.95
2019-06-26T16:30:30.393Z,10.25
2019-06-26T16:32:57.081Z,9.60
2019-06-26T16:35:23.383Z,9.93
2019-06-26T16:37:49.486Z,9.03
2019-06-26T16:40:16.302Z,9.63
2019-06-26T16:42:42.588Z,9.00
2019-06-26T16:45:08.975Z,9.53
2019-06-26T16:47:35.093Z,9.53
2019-06-26T16:50:03.270Z,10.35
2019-06-26T16:52:29.516Z,9.58
2019-06-26T16:54:55.614Z,10.70
2019-06-26T16:57:22.025Z,9.90
2019-06-26T16:59:48.211Z,9.65
2019-06-26T17:02:14.403Z,9.53
2019-06-26T17:04:40.739Z,9.13
2019-06-26T17:07:07.002Z,8.90
2019-06-26T17:09:33.418Z,9.50
2019-06-26T17:11:59.615Z,9.45
2019-06-26T17:14:25.859Z,8.68
2019-06-26T17:16:52.069Z,9.00
2019-06-26T17:19:18.672Z,9.50
2019-06-26T17:21:45.163Z,9.10
2019-06-26T17:24:11.465Z,8.65
2019-06-26T17:26:37.544Z,8.55
2019-06-26T17:29:03.830Z,8.20
2019-06-26T17:31:30.033Z,8.15
2019-06-26T17:33:56.136Z,7.55
2019-06-26T17:36:22.435Z,7.35
2019-06-26T17:38:48.934Z,7.20
2019-06-26T17:41:15.119Z,7.30
2019-06-26T17:43:41.340Z,6.80
2019-06-26T17:46:07.632Z,7.10
2019-06-26T17:48:33.862Z,6.80
2019-06-26T17:51:00.140Z,6.40
2019-06-26T17:53:26.474Z,5.87
2019-06-26T17:55:52.863Z,6.87
2019-06-26T17:58:19.172Z,6.53
2019-06-26T18:00:45.458Z,6.70
2019-06-26T18:03:11.849Z,7.33
2019-06-26T18:05:40.448Z,6.33
2019-06-26T18:08:06.693Z,6.50
2019-06-26T18:10:32.902Z,6.60
2019-06-26T18:12:59.128Z,6.12
2019-06-26T18:15:25.743Z,6.40
2019-06-26T18:17:52.006Z,6.35
2019-06-26T18:20:18.522Z,6.40
2019-06-26T18:22:44.848Z,5.92
2019-06-26T18:25:16.443Z,5.87
2019-06-26T18:27:41.026Z,6.30
2019-06-26T18:30:09.430Z,6.10
2019-06-26T18:32:35.613Z,6.40
2019-06-26T18:35:05.416Z,7.92
2019-06-26T18:37:31.591Z,6.17
2019-06-26T18:39:57.909Z,7.17
2019-06-26T18:42:24.122Z,6.92
2019-06-26T18:44:50.353Z,6.30
2019-06-26T18:47:16.640Z,6.35
2019-06-26T18:49:42.837Z,6.62
2019-06-26T18:52:09.079Z,6.85
2019-06-26T18:54:35.407Z,8.20
2019-06-26T18:57:01.519Z,6.50
2019-06-26T18:59:27.641Z,6.78
2019-06-26T19:01:54.222Z,6.20
2019-06-26T19:04:22.441Z,5.97
2019-06-26T19:06:48.696Z,6.00
2019-06-26T19:09:14.974Z,5.95
2019-06-26T19:11:41.231Z,6.05
2019-06-26T19:14:07.588Z,5.50
2019-06-26T19:16:36.272Z,5.35
2019-06-26T19:19:02.087Z,5.20
2019-06-26T19:21:28.432Z,5.17
2019-06-26T19:24:09.187Z,5.10
2019-06-26T19:26:22.970Z,4.67
2019-06-26T19:28:49.323Z,5.30
2019-06-26T19:31:15.537Z,5.25
2019-06-26T19:33:45.444Z,5.20
2019-06-26T19:36:10.352Z,4.78
2019-06-26T19:38:36.625Z,4.58
2019-06-26T19:41:03.450Z,4.90
2019-06-26T19:43:30.876Z,5.05
2019-06-26T19:45:57.294Z,4.53
2019-06-26T19:48:23.657Z,4.80
2019-06-26T19:50:49.782Z,4.55
2019-06-26T19:53:16.109Z,6.80
2019-06-26T19:55:42.433Z,5.87
2019-06-26T19:58:08.691Z,4.50
2019-06-26T20:00:34.996Z,4.25
2019-06-26T20:03:01.208Z,4.40
2019-06-26T20:05:27.508Z,4.45
2019-06-26T20:07:53.828Z,4.08
2019-06-26T20:10:20.279Z,3.98
2019-06-26T20:12:46.597Z,3.87
2019-06-26T20:15:13.032Z,3.70
2019-06-26T20:17:39.447Z,4.08
2019-06-26T20:20:07.361Z,3.90
2019-06-26T20:22:33.875Z,3.75
2019-06-26T20:25:00.291Z,4.25
2019-06-26T20:27:26.547Z,3.77
2019-06-26T20:29:52.843Z,4.40
2019-06-26T20:32:18.972Z,4.05
2019-06-26T20:34:45.088Z,4.30
2019-06-26T20:37:11.214Z,3.80
2019-06-26T20:39:37.390Z,4.08
2019-06-26T20:42:03.707Z,3.70
2019-06-26T20:44:29.882Z,4.03
2019-06-26T20:46:56.041Z,4.40
2019-06-26T20:49:22.106Z,4.33
2019-06-26T20:51:48.307Z,4.33
2019-06-26T20:54:14.493Z,4.40
2019-06-26T20:56:40.697Z,4.35
2019-06-26T20:59:06.813Z,4.08
2019-06-26T21:01:33.044Z,4.22
2019-06-26T21:03:59.356Z,3.90
2019-06-26T21:06:25.560Z,3.60
2019-06-26T21:08:51.865Z,4.03
2019-06-26T21:11:18.167Z,4.12
2019-06-26T21:13:45.350Z,3.98
2019-06-26T21:16:11.551Z,4.20
2019-06-26T21:18:37.829Z,3.70
2019-06-26T21:21:03.914Z,3.47
2019-06-26T21:23:30.005Z,3.50
2019-06-26T21:25:56.216Z,3.95
2019-06-26T21:28:22.521Z,4.00
2019-06-26T21:30:49.137Z,3.67
2019-06-26T21:33:15.319Z,4.35
2019-06-26T21:35:41.764Z,3.60
2019-06-26T21:38:08.155Z,3.85
2019-06-26T21:40:34.521Z,3.87
2019-06-26T21:43:01.805Z,3.27
2019-06-26T21:45:27.991Z,3.77
2019-06-26T21:47:54.162Z,3.67
2019-06-26T21:50:20.486Z,3.90
2019-06-26T21:52:48.087Z,3.58
2019-06-26T21:55:14.250Z,3.70
2019-06-26T21:57:58.803Z,3.90
2019-06-26T22:00:44.965Z,4.22
2019-06-26T22:03:29.953Z,3.62
2019-06-26T22:06:13.357Z,3.80
2019-06-26T22:08:57.982Z,3.95
2019-06-26T22:11:24.357Z,4.03
2019-06-26T22:13:50.657Z,3.95
2019-06-26T22:16:17.135Z,4.05
2019-06-26T22:18:43.754Z,4.25
2019-06-26T22:21:09.988Z,4.45
2019-06-26T22:23:36.141Z,4.00
2019-06-26T22:26:03.404Z,4.37
2019-06-26T22:28:29.596Z,4.17
2019-06-26T22:30:55.695Z,3.95
2019-06-26T22:33:22.122Z,3.87
2019-06-26T22:35:48.457Z,4.28
2019-06-26T22:38:14.776Z,4.67
2019-06-26T22:40:40.963Z,4.42
2019-06-26T22:43:07.351Z,4.08
2019-06-26T22:45:33.636Z,4.53
2019-06-26T22:47:59.919Z,4.28
2019-06-26T22:50:26.097Z,4.35
2019-06-26T22:52:52.210Z,3.92
2019-06-26T22:55:18.350Z,3.92
2019-06-26T22:57:44.629Z,4.20
2019-06-26T23:00:13.670Z,4.28
2019-06-26T23:02:39.946Z,4.60
2019-06-26T23:05:06.343Z,4.10
2019-06-26T23:07:32.730Z,4.12
2019-06-26T23:09:58.924Z,3.77
2019-06-26T23:12:25.020Z,4.10
2019-06-26T23:14:51.530Z,4.28
2019-06-26T23:17:17.601Z,4.33
2019-06-26T23:19:43.804Z,4.60
2019-06-26T23:22:09.972Z,4.55
2019-06-26T23:24:36.158Z,4.40
2019-06-26T23:27:02.362Z,4.70
2019-06-26T23:29:28.561Z,4.83
2019-06-26T23:31:54.673Z,5.60
2019-06-26T23:34:20.873Z,5.10
2019-06-26T23:36:47.064Z,5.10
2019-06-26T23:39:13.161Z,5.47
2019-06-26T23:41:39.342Z,6.17
2019-06-26T23:44:05.605Z,5.22
2019-06-26T23:46:31.686Z,5.80
2019-06-26T23:48:57.754Z,6.12
2019-06-26T23:51:23.865Z,6.20
2019-06-26T23:53:50.080Z,6.05
2019-06-26T23:56:16.232Z,6.40
2019-06-26T23:58:42.314Z,5.70
